METAR Data
IDs: Format: Raw Decoded Include TAF

Data at: 0235 UTC 12 May 2021

KHNB 120156Z AUTO 04006KT 10SM OVC120 12/03 A3029 RMK AO2 SLP259 T01170028
KHNB 120056Z AUTO 04006KT 10SM OVC110 13/02 A3027 RMK AO2 SLP253 T01280022
KHNB 112356Z AUTO 05008KT 10SM OVC110 14/03 A3024 RMK AO2 SLP241 T01390028 10178 20139 53008
KHNB 112256Z AUTO 04009KT 10SM BKN100 14/03 A3023 RMK AO2 SLP239 T01440028
KHNB 112156Z AUTO 08006KT 10SM SCT065 BKN110 16/04 A3022 RMK AO2 SLP233 T01560039
KHNB 112056Z AUTO 08008KT 10SM FEW120 16/05 A3021 RMK AO2 SLP233 T01610050 58010
KHNB 111956Z AUTO 05006KT 10SM FEW050 17/07 A3023 RMK AO2 SLP237 T01670067
KHNB 111856Z AUTO 01007KT 10SM FEW042 BKN060 16/07 A3024 RMK AO2 SLP241 T01610072
KHNB 111756Z AUTO 01011G16KT 10SM SCT042 SCT049 BKN060 17/08 A3025 RMK AO2 SLP242 T01670083 10167 20089 58001
KHNB 111656Z AUTO 04009KT 10SM BKN038 OVC048 15/08 A3027 RMK AO2 SLP249 T01500083
KHNB 111556Z AUTO 04008KT 10SM BKN032 15/08 A3026 RMK AO2 SLP247 T01500083
KHNB 111456Z AUTO 08007KT 10SM FEW028 14/08 A3025 RMK AO2 SLP243 T01390083 51006
KHNB 111356Z AUTO 06007KT 10SM CLR 13/08 A3025 RMK AO2 SLP242 T01280083
KHNB 111256Z AUTO 04011KT 10SM CLR 11/08 A3024 RMK AO2 SLP240 T01060083
KHNB 111156Z AUTO 07005KT 10SM CLR 08/07 A3023 RMK AO2 SLP238 T00830072 10094 20061 53018
KHNB 111056Z AUTO 04005KT 10SM CLR 06/06 A3020 RMK AO2 SLP229 T00610056
KHNB 110956Z AUTO 02004KT 10SM CLR 07/06 A3019 RMK AO2 SLP224 T00670061
KHNB 110856Z AUTO 02006KT 10SM CLR 06/06 A3018 RMK AO2 SLP220 T00610061 53003
KHNB 110756Z AUTO 00000KT 10SM CLR 07/07 A3017 RMK AO2 SLP216 T00720067
KHNB 110656Z AUTO 00000KT 10SM CLR 08/07 A3015 RMK AO2 SLP212 T00780067
KHNB 110556Z AUTO 00000KT 10SM CLR 09/06 A3017 RMK AO2 SLP216 T00940061 10150 20094 52009
KHNB 110456Z AUTO 36003KT 10SM CLR 11/06 A3016 RMK AO2 SLP214 T01060061
KHNB 110356Z AUTO 01006KT 10SM SCT120 12/07 A3015 RMK AO2 SLP209 T01170067 401670039
KHNB 110256Z AUTO 02003KT 10SM CLR 12/07 A3014 RMK AO2 SLP207 T01170072 50003
KHNB 110156Z AUTO 36003KT 10SM CLR 13/07 A3015 RMK AO2 SLP209 T01280067
KHNB 110056Z AUTO 00000KT 10SM CLR 13/06 A3014 RMK AO2 SLP208 T01330061
KHNB 102356Z AUTO 00000KT 10SM BKN110 14/05 A3013 RMK AO2 SLP205 T01440050 10167 20144 55004
KHNB 102256Z AUTO 04006KT 10SM FEW120 15/03 A3011 RMK AO2 SLP198 T01500033
KHNB 102156Z AUTO 03009KT 10SM CLR 16/03 A3010 RMK AO2 SLP194 T01560028
KHNB 102056Z AUTO VRB03KT 10SM CLR 16/04 A3014 RMK AO2 SLP209 T01560044 53001
KHNB 101956Z AUTO 03003KT 10SM CLR 16/04 A3013 RMK AO2 SLP204 T01610044
KHNB 101856Z AUTO 08008KT 10SM CLR 16/04 A3013 RMK AO2 SLP202 T01610039
KHNB 101756Z AUTO 36008G14KT 10SM CLR 16/05 A3014 RMK AO2 SLP207 T01560050 10156 20050 55004
KHNB 101656Z AUTO 04009KT 10SM CLR 14/05 A3013 RMK AO2 SLP206 T01390050
KHNB 101556Z AUTO 08006G14KT 10SM CLR 13/04 A3014 RMK AO2 SLP209 T01280044
KHNB 101456Z AUTO 05005KT 10SM CLR 11/06 A3015 RMK AO2 SLP211 T01110056 51013